Time;durP1;ratioP1;P1;durP2;ratioP2;P2;SDS_P1;SDS_P2;PMS_P1;PMS_P2;Temp;Humidity;BMP_temperature;BMP_pressure;BME280_temperature;BME280_humidity;BME280_pressure;Samples;Min_cycle;Max_cycle;Signal;HPM_P1;HPM_P2
2022/10/06 00:00:47;;;;;;;6.03;3.67;;;14.60;99.90;;;;;;5051198;28;20036;-65
2022/10/06 00:03:13;;;;;;;7.80;3.70;;;14.70;99.90;;;;;;5051493;28;20033;-66
2022/10/06 00:05:39;;;;;;;7.72;3.72;;;14.70;99.90;;;;;;5051690;28;20044;-64
2022/10/06 00:08:06;;;;;;;8.10;3.80;;;14.80;99.90;;;;;;5051864;28;20039;-64
2022/10/06 00:10:31;;;;;;;8.27;3.65;;;14.80;99.90;;;;;;5051187;28;20465;-65
2022/10/06 00:12:57;;;;;;;5.05;3.40;;;14.80;99.90;;;;;;5051584;28;20087;-66
2022/10/06 00:15:29;;;;;;;6.85;3.58;;;14.70;99.90;;;;;;5050503;28;20029;-64
2022/10/06 00:17:56;;;;;;;5.55;3.47;;;14.70;99.90;;;;;;5051686;28;20025;-66
2022/10/06 00:20:22;;;;;;;5.88;3.80;;;14.70;99.90;;;;;;5050348;28;20056;-65
2022/10/06 00:22:49;;;;;;;10.38;3.60;;;14.70;99.90;;;;;;5051485;28;20120;-67
2022/10/06 00:25:17;;;;;;;4.80;3.33;;;14.70;99.90;;;;;;5050509;28;20033;-65
2022/10/06 00:27:48;;;;;;;8.40;3.72;;;14.70;99.90;;;;;;5051408;28;20025;-64
2022/10/06 00:30:22;;;;;;;7.78;3.50;;;14.60;99.90;;;;;;5050694;28;20043;-66
2022/10/06 00:32:57;;;;;;;5.80;3.40;;;14.50;99.90;;;;;;5050542;28;20031;-66
2022/10/06 00:35:24;;;;;;;5.75;3.42;;;14.40;99.90;;;;;;5050395;28;20033;-66
2022/10/06 00:37:50;;;;;;;6.10;3.47;;;14.40;99.90;;;;;;5051232;28;20028;-64
2022/10/06 00:40:16;;;;;;;7.60;3.53;;;14.40;99.90;;;;;;5050398;28;20033;-65
2022/10/06 00:42:54;;;;;;;11.48;3.55;;;14.40;99.90;;;;;;5051145;28;20472;-64
2022/10/06 00:45:26;;;;;;;7.38;3.40;;;14.30;99.90;;;;;;5050201;28;20079;-66
2022/10/06 00:47:54;;;;;;;7.13;3.63;;;14.10;99.90;;;;;;5051050;28;20029;-64
2022/10/06 00:50:20;;;;;;;7.28;3.63;;;13.90;99.90;;;;;;5049837;28;20489;-64
2022/10/06 00:52:46;;;;;;;8.27;3.90;;;13.80;99.90;;;;;;5050829;28;20079;-64
2022/10/06 00:55:13;;;;;;;12.68;3.95;;;13.60;99.90;;;;;;5050192;28;20457;-71
2022/10/06 00:57:39;;;;;;;6.43;3.80;;;13.50;99.90;;;;;;5050737;28;20494;-64
2022/10/06 01:00:07;;;;;;;7.75;3.35;;;13.50;99.90;;;;;;5050869;28;20150;-65
2022/10/06 01:02:42;;;;;;;8.50;3.45;;;13.40;99.90;;;;;;5049485;28;20924;-66
2022/10/06 01:05:14;;;;;;;5.88;3.33;;;13.30;99.90;;;;;;5050550;28;20032;-66
2022/10/06 01:07:39;;;;;;;5.80;3.28;;;13.30;99.90;;;;;;5049141;28;20044;-67
2022/10/06 01:10:05;;;;;;;9.25;3.55;;;13.20;99.90;;;;;;5050598;28;20036;-64
2022/10/06 01:12:32;;;;;;;4.72;3.40;;;13.30;99.90;;;;;;5048755;28;20104;-67
2022/10/06 01:14:58;;;;;;;6.75;3.60;;;13.30;99.90;;;;;;5050449;28;20025;-64
2022/10/06 01:17:37;;;;;;;6.80;3.67;;;13.30;99.90;;;;;;5050003;28;20032;-65
2022/10/06 01:20:10;;;;;;;13.68;3.85;;;13.20;99.90;;;;;;5050066;28;20607;-66
2022/10/06 01:22:40;;;;;;;6.20;3.50;;;13.20;99.90;;;;;;5049892;28;20028;-66
2022/10/06 01:25:07;;;;;;;6.00;3.50;;;13.10;99.90;;;;;;5050447;28;20025;-67
2022/10/06 01:27:35;;;;;;;7.70;3.50;;;13.10;99.90;;;;;;5049367;28;20063;-66
2022/10/06 01:30:02;;;;;;;10.43;3.60;;;13.00;99.90;;;;;;5050287;28;20064;-66
2022/10/06 01:32:33;;;;;;;5.65;3.50;;;13.00;99.90;;;;;;5049292;28;20029;-64
2022/10/06 01:34:58;;;;;;;7.65;3.05;;;12.90;99.90;;;;;;5050203;28;20075;-65
2022/10/06 01:37:24;;;;;;;6.53;3.30;;;12.80;99.90;;;;;;5049393;28;20497;-64
2022/10/06 01:39:50;;;;;;;7.43;3.10;;;12.80;99.90;;;;;;5049840;28;20028;-64
2022/10/06 01:42:15;;;;;;;8.23;3.70;;;12.80;99.90;;;;;;5049216;28;20037;-71
2022/10/06 01:44:41;;;;;;;7.10;3.70;;;12.70;99.90;;;;;;5049576;28;20033;-64
2022/10/06 01:47:07;;;;;;;5.93;3.00;;;12.70;99.90;;;;;;5049685;28;20064;-65
2022/10/06 01:49:33;;;;;;;7.00;3.75;;;12.50;99.90;;;;;;5048985;28;20214;-66
2022/10/06 01:51:59;;;;;;;9.75;3.58;;;12.50;99.90;;;;;;5049750;28;20727;-65
2022/10/06 01:54:25;;;;;;;7.20;3.70;;;12.40;99.90;;;;;;5048817;28;20025;-63
2022/10/06 01:56:50;;;;;;;8.23;3.90;;;12.30;99.90;;;;;;5049735;28;20492;-64
2022/10/06 01:59:16;;;;;;;8.88;3.50;;;12.30;99.90;;;;;;5049080;28;20036;-71
2022/10/06 02:01:41;;;;;;;5.95;3.67;;;12.30;99.90;;;;;;5048265;28;20032;-64
2022/10/06 02:04:07;;;;;;;5.85;3.35;;;12.30;99.90;;;;;;5049010;28;20037;-65
2022/10/06 02:06:33;;;;;;;9.02;4.10;;;12.30;99.90;;;;;;5048734;28;20033;-67
2022/10/06 02:09:02;;;;;;;7.20;3.80;;;12.20;99.90;;;;;;5049615;28;20110;-65
2022/10/06 02:11:28;;;;;;;9.77;4.30;;;12.20;99.90;;;;;;5048824;28;20098;-65
2022/10/06 02:13:54;;;;;;;10.18;3.65;;;12.10;99.90;;;;;;5049442;28;20021;-66
2022/10/06 02:16:20;;;;;;;10.57;3.65;;;12.00;99.90;;;;;;5048656;28;20083;-67
2022/10/06 02:18:46;;;;;;;8.15;4.10;;;12.00;99.90;;;;;;5049372;28;20029;-64
2022/10/06 02:21:20;;;;;;;8.50;3.78;;;12.00;99.90;;;;;;5047722;28;20421;-65
2022/10/06 02:23:46;;;;;;;9.82;3.88;;;11.90;99.90;;;;;;5049202;28;20029;-63
2022/10/06 02:26:13;;;;;;;5.50;3.83;;;11.80;99.90;;;;;;5049324;28;20028;-65
2022/10/06 02:28:39;;;;;;;8.88;3.83;;;11.70;99.90;;;;;;5046930;28;20029;-65
2022/10/06 02:31:07;;;;;;;6.63;3.88;;;11.60;99.90;;;;;;5049367;28;20028;-64
2022/10/06 02:33:34;;;;;;;8.63;3.63;;;11.60;99.90;;;;;;5048469;28;20064;-64
2022/10/06 02:35:59;;;;;;;7.95;3.95;;;11.50;99.90;;;;;;5049058;28;20033;-66
2022/10/06 02:38:26;;;;;;;8.60;4.07;;;11.40;99.90;;;;;;5048305;28;20385;-65
2022/10/06 02:40:52;;;;;;;8.55;4.03;;;11.40;99.90;;;;;;5048838;28;20028;-65
2022/10/06 02:43:19;;;;;;;8.23;4.45;;;11.40;99.90;;;;;;5048565;28;20032;-70
2022/10/06 02:45:52;;;;;;;8.45;4.03;;;11.40;99.90;;;;;;5049438;28;20493;-64
2022/10/06 02:48:18;;;;;;;6.72;4.30;;;11.40;99.90;;;;;;5048862;28;20037;-70
2022/10/06 02:50:44;;;;;;;7.85;4.07;;;11.30;99.90;;;;;;5049133;28;20119;-65
2022/10/06 02:53:10;;;;;;;8.27;4.25;;;11.40;99.90;;;;;;5049067;28;20111;-65
2022/10/06 02:55:35;;;;;;;11.50;4.30;;;11.30;99.90;;;;;;5048337;28;20037;-66
2022/10/06 02:58:02;;;;;;;7.80;4.38;;;11.30;99.90;;;;;;5049417;28;20457;-65
2022/10/06 03:00:28;;;;;;;13.48;4.50;;;11.30;99.90;;;;;;5047795;28;20025;-66
2022/10/06 03:02:54;;;;;;;7.45;3.92;;;11.30;99.90;;;;;;5048662;28;20428;-64
2022/10/06 03:05:19;;;;;;;12.35;4.13;;;11.30;99.90;;;;;;5048661;28;20029;-70
2022/10/06 03:07:45;;;;;;;7.13;3.78;;;11.30;99.90;;;;;;5048658;28;20029;-65
2022/10/06 03:10:11;;;;;;;9.90;4.25;;;11.10;99.90;;;;;;5049032;28;20179;-64
2022/10/06 03:12:36;;;;;;;8.18;3.90;;;11.00;99.90;;;;;;5048177;28;20063;-65
2022/10/06 03:15:03;;;;;;;8.23;3.72;;;10.80;99.90;;;;;;5047947;28;20368;-65
2022/10/06 03:17:28;;;;;;;9.60;4.07;;;10.80;99.90;;;;;;5048142;28;20033;-64
2022/10/06 03:19:55;;;;;;;9.07;3.85;;;10.80;99.90;;;;;;5048498;28;20469;-63
2022/10/06 03:22:21;;;;;;;10.07;4.25;;;10.90;99.90;;;;;;5048115;28;20032;-68
2022/10/06 03:24:47;;;;;;;8.50;4.38;;;11.00;99.90;;;;;;5049054;28;20569;-65
2022/10/06 03:27:12;;;;;;;10.65;4.10;;;11.00;99.90;;;;;;5048691;28;20029;-64
2022/10/06 03:29:38;;;;;;;7.65;3.70;;;11.00;99.90;;;;;;5047337;28;20039;-65
2022/10/06 03:32:04;;;;;;;12.23;4.88;;;11.10;99.90;;;;;;5048562;28;20029;-65
2022/10/06 03:34:29;;;;;;;7.15;4.25;;;10.90;99.90;;;;;;5048229;28;20100;-66
2022/10/06 03:36:55;;;;;;;7.65;4.13;;;10.90;99.90;;;;;;5052287;28;20047;-65
2022/10/06 03:39:21;;;;;;;8.85;4.30;;;10.80;99.90;;;;;;5051864;28;20025;-69
2022/10/06 03:41:46;;;;;;;7.75;4.00;;;10.80;99.90;;;;;;5050706;28;20120;-64
2022/10/06 03:44:12;;;;;;;10.57;4.10;;;10.70;99.90;;;;;;5052271;28;20039;-65
2022/10/06 03:46:38;;;;;;;7.45;3.70;;;10.60;99.90;;;;;;5050607;28;20056;-65
2022/10/06 03:49:04;;;;;;;11.05;3.92;;;10.60;99.90;;;;;;5052070;28;20033;-63
2022/10/06 03:51:36;;;;;;;6.45;3.97;;;10.50;99.90;;;;;;5051340;28;20029;-64
2022/10/06 03:54:02;;;;;;;8.32;3.92;;;10.60;99.90;;;;;;5052164;28;20033;-65
2022/10/06 03:56:35;;;;;;;10.27;4.15;;;10.60;99.90;;;;;;5051012;28;20037;-65
2022/10/06 03:59:09;;;;;;;6.75;4.15;;;10.70;99.90;;;;;;5051741;28;20060;-64
2022/10/06 04:01:46;;;;;;;8.48;4.10;;;10.70;99.90;;;;;;5051116;28;20025;-66
2022/10/06 04:04:12;;;;;;;7.28;4.22;;;10.70;99.90;;;;;;5051935;28;20111;-65
2022/10/06 04:06:40;;;;;;;11.70;4.55;;;10.70;99.90;;;;;;5051189;28;20040;-65
2022/10/06 04:09:10;;;;;;;9.43;3.83;;;10.60;99.90;;;;;;5051895;28;20033;-66
2022/10/06 04:11:37;;;;;;;7.80;3.80;;;10.50;99.90;;;;;;5049599;28;20029;-64
2022/10/06 04:14:08;;;;;;;6.97;3.78;;;10.30;99.90;;;;;;5051537;28;20493;-65
2022/10/06 04:16:37;;;;;;;6.30;4.00;;;10.20;99.90;;;;;;5050890;28;20033;-65
2022/10/06 04:19:05;;;;;;;10.90;4.60;;;10.30;99.90;;;;;;5051559;28;20108;-65
2022/10/06 04:21:35;;;;;;;8.60;4.45;;;10.30;99.90;;;;;;5050255;28;20107;-65
2022/10/06 04:24:01;;;;;;;6.90;3.65;;;10.40;99.90;;;;;;5051626;28;20036;-65
2022/10/06 04:26:32;;;;;;;7.85;3.72;;;10.30;99.90;;;;;;5050057;28;20040;-66
2022/10/06 04:28:59;;;;;;;7.97;3.85;;;10.30;99.90;;;;;;5049854;28;20032;-66
2022/10/06 04:31:28;;;;;;;10.63;4.22;;;10.30;99.90;;;;;;5050792;28;20080;-70
2022/10/06 04:33:56;;;;;;;7.38;3.70;;;10.30;99.90;;;;;;5050975;28;20025;-66
2022/10/06 04:36:27;;;;;;;10.90;3.90;;;10.40;99.90;;;;;;5051022;28;20045;-70
2022/10/06 04:38:57;;;;;;;6.72;4.00;;;10.40;99.90;;;;;;5051274;28;20120;-65
2022/10/06 04:41:35;;;;;;;8.27;4.07;;;10.50;99.90;;;;;;5050739;28;20477;-69
2022/10/06 04:44:01;;;;;;;6.13;3.67;;;10.60;99.90;;;;;;5051097;28;20025;-65
2022/10/06 04:46:27;;;;;;;7.57;3.95;;;10.60;99.90;;;;;;5048399;28;20029;-67
2022/10/06 04:48:54;;;;;;;8.63;3.75;;;10.50;99.90;;;;;;5050709;28;20497;-65
2022/10/06 04:51:21;;;;;;;5.55;3.35;;;10.50;99.90;;;;;;5050996;28;20060;-65
2022/10/06 04:53:47;;;;;;;8.45;3.45;;;10.50;99.90;;;;;;5050189;28;20040;-67
2022/10/06 04:56:16;;;;;;;6.72;3.63;;;10.40;99.90;;;;;;5050893;28;20434;-66
2022/10/06 04:58:44;;;;;;;10.63;3.45;;;10.40;99.90;;;;;;5050067;28;20116;-65
2022/10/06 05:01:16;;;;;;;10.80;3.78;;;10.40;99.90;;;;;;5050591;28;20032;-67
2022/10/06 05:03:43;;;;;;;10.85;4.25;;;10.50;99.90;;;;;;5049930;28;20028;-65
2022/10/06 05:06:14;;;;;;;7.10;3.80;;;10.50;99.90;;;;;;5049366;28;20037;-65
2022/10/06 05:08:40;;;;;;;7.85;3.88;;;10.50;99.90;;;;;;5049532;28;20072;-63
2022/10/06 05:11:09;;;;;;;6.22;3.80;;;10.50;99.90;;;;;;5050422;28;20064;-66
2022/10/06 05:13:36;;;;;;;7.85;4.00;;;10.50;99.90;;;;;;5049465;28;20048;-64
2022/10/06 05:16:03;;;;;;;7.75;3.85;;;10.60;99.90;;;;;;5050575;28;20068;-65
2022/10/06 05:18:29;;;;;;;9.13;3.85;;;10.60;99.90;;;;;;5049422;28;20033;-67
2022/10/06 05:21:04;;;;;;;10.57;4.30;;;10.60;99.90;;;;;;5050396;28;20131;-63
2022/10/06 05:23:31;;;;;;;7.03;3.65;;;10.70;99.90;;;;;;5049708;28;20044;-67
2022/10/06 05:25:58;;;;;;;9.40;4.10;;;10.70;99.90;;;;;;5050188;28;20037;-66
2022/10/06 05:28:26;;;;;;;6.00;3.47;;;10.80;99.90;;;;;;5050063;28;20405;-65
2022/10/06 05:31:03;;;;;;;10.38;3.58;;;10.70;99.90;;;;;;5049741;28;20507;-64
2022/10/06 05:33:31;;;;;;;9.50;3.60;;;10.80;99.90;;;;;;5049386;28;20028;-69
2022/10/06 05:35:59;;;;;;;7.28;3.35;;;10.80;99.90;;;;;;5050140;28;20492;-65
2022/10/06 05:38:28;;;;;;;10.73;4.15;;;10.90;99.90;;;;;;5049487;28;20021;-70
2022/10/06 05:41:12;;;;;;;12.23;4.30;;;11.00;99.90;;;;;;5050199;28;20049;-65
2022/10/06 05:43:38;;;;;;;6.45;3.75;;;11.20;99.90;;;;;;5048898;28;20469;-65
2022/10/06 05:46:06;;;;;;;6.13;3.70;;;11.30;99.90;;;;;;5049888;28;20527;-65
2022/10/06 05:48:32;;;;;;;10.38;4.47;;;11.30;99.90;;;;;;5048630;28;20571;-66
2022/10/06 05:51:07;;;;;;;8.13;4.22;;;11.40;99.90;;;;;;5049146;28;20040;-66
2022/10/06 05:53:37;;;;;;;11.85;4.20;;;11.60;99.90;;;;;;5049075;28;20091;-65
2022/10/06 05:56:07;;;;;;;11.15;5.20;;;11.70;99.90;;;;;;5049778;28;20045;-65
2022/10/06 05:58:34;;;;;;;9.32;3.58;;;11.90;99.90;;;;;;5048295;28;20036;-64
2022/10/06 06:01:18;;;;;;;10.95;3.83;;;11.90;99.90;;;;;;5049425;28;20493;-64
2022/10/06 06:04:01;;;;;;;12.15;4.03;;;11.80;99.90;;;;;;5048946;28;20556;-66
2022/10/06 06:06:33;;;;;;;9.43;4.32;;;11.80;99.90;;;;;;5048883;28;20456;-69
2022/10/06 06:08:59;;;;;;;15.02;5.50;;;11.90;99.90;;;;;;5048246;28;20033;-64
2022/10/06 06:11:26;;;;;;;10.07;5.00;;;12.10;99.90;;;;;;5049575;28;20075;-63
2022/10/06 06:14:00;;;;;;;10.45;6.00;;;12.20;99.90;;;;;;5048717;28;20110;-66
2022/10/06 06:16:27;;;;;;;16.77;5.65;;;12.30;99.90;;;;;;5049628;28;20033;-65
2022/10/06 06:18:53;;;;;;;11.73;5.80;;;12.40;99.90;;;;;;5048099;28;20033;-67
2022/10/06 06:21:20;;;;;;;11.27;5.68;;;12.60;99.90;;;;;;5049073;28;20461;-65
2022/10/06 06:23:47;;;;;;;11.75;5.13;;;12.70;99.90;;;;;;5048732;28;20778;-65
2022/10/06 06:26:16;;;;;;;10.50;5.15;;;12.90;99.90;;;;;;5049377;28;20036;-63
2022/10/06 06:28:43;;;;;;;11.57;5.53;;;13.00;99.90;;;;;;5048310;28;20512;-65
2022/10/06 06:31:10;;;;;;;14.02;4.65;;;13.00;99.90;;;;;;5049413;28;20025;-66
2022/10/06 06:33:38;;;;;;;19.65;5.05;;;13.10;99.90;;;;;;5047170;28;20105;-64
2022/10/06 06:36:17;;;;;;;10.05;5.20;;;13.20;99.90;;;;;;5049301;28;20111;-65
2022/10/06 06:38:48;;;;;;;11.65;5.18;;;13.20;99.90;;;;;;5048480;28;20044;-67
2022/10/06 06:41:20;;;;;;;12.63;4.93;;;13.30;99.90;;;;;;5047596;28;20032;-65
2022/10/06 06:43:46;;;;;;;12.30;5.53;;;13.40;99.90;;;;;;5046770;28;20751;-65
2022/10/06 06:46:16;;;;;;;13.10;5.20;;;13.50;99.90;;;;;;5048832;28;20041;-66
2022/10/06 06:48:42;;;;;;;11.00;5.32;;;13.50;99.90;;;;;;5048314;28;20040;-66
2022/10/06 06:51:11;;;;;;;15.20;4.78;;;13.60;99.90;;;;;;5049122;28;20052;-64
2022/10/06 06:53:38;;;;;;;13.33;4.80;;;13.70;99.90;;;;;;5048192;28;20029;-66
2022/10/06 06:56:07;;;;;;;9.60;4.85;;;13.70;99.90;;;;;;5049142;28;20033;-66
2022/10/06 06:58:33;;;;;;;14.45;4.60;;;13.80;99.90;;;;;;5048513;28;20499;-69
2022/10/06 07:01:12;;;;;;;9.20;4.25;;;13.90;99.90;;;;;;5048851;28;20029;-65
2022/10/06 07:03:39;;;;;;;11.30;4.45;;;13.90;99.90;;;;;;5048224;28;20036;-66
2022/10/06 07:06:10;;;;;;;12.13;5.32;;;14.00;99.90;;;;;;5048665;28;20140;-64
2022/10/06 07:08:43;;;;;;;14.00;5.85;;;14.10;99.90;;;;;;5048394;28;20136;-64
2022/10/06 07:11:33;;;;;;;11.32;5.15;;;14.20;99.90;;;;;;5051149;28;20037;-65
2022/10/06 07:14:11;;;;;;;12.38;5.78;;;14.20;99.90;;;;;;5052327;28;20116;-65
2022/10/06 07:25:06;;;;;;;10.00;4.60;;;14.40;99.90;;;;;;5050918;28;20676;-64
2022/10/06 07:27:36;;;;;;;22.55;5.43;;;14.40;99.90;;;;;;5052516;28;20032;-68
2022/10/06 07:30:05;;;;;;;13.55;5.40;;;14.50;99.90;;;;;;5052202;28;20090;-65
2022/10/06 07:32:31;;;;;;;9.82;5.60;;;14.60;99.90;;;;;;5052280;28;20393;-66
2022/10/06 07:34:57;;;;;;;11.32;5.38;;;14.70;99.90;;;;;;5051463;28;20017;-67
2022/10/06 07:37:24;;;;;;;10.02;5.22;;;14.80;99.90;;;;;;5052421;28;20033;-66
2022/10/06 07:39:50;;;;;;;12.55;5.63;;;14.80;99.90;;;;;;5051208;28;20028;-65
2022/10/06 07:42:16;;;;;;;17.25;6.22;;;14.80;99.90;;;;;;5052284;28;20090;-68
2022/10/06 07:44:43;;;;;;;11.52;5.60;;;14.90;99.90;;;;;;5051584;28;20036;-68
2022/10/06 07:47:09;;;;;;;14.90;5.60;;;15.00;99.90;;;;;;5052203;28;20091;-64
2022/10/06 07:49:35;;;;;;;12.77;5.43;;;15.00;99.90;;;;;;5051972;28;20473;-70
2022/10/06 07:52:04;;;;;;;12.65;5.70;;;15.00;99.90;;;;;;5051909;28;20113;-65
2022/10/06 07:54:29;;;;;;;12.93;5.97;;;15.00;99.90;;;;;;5052226;28;20029;-66
2022/10/06 07:56:55;;;;;;;17.17;5.47;;;14.90;99.90;;;;;;5051306;28;20117;-65
2022/10/06 07:59:21;;;;;;;13.90;5.63;;;14.90;99.90;;;;;;5051587;28;20107;-67
2022/10/06 08:01:48;;;;;;;21.95;6.00;;;15.00;99.90;;;;;;5050992;28;20032;-66
2022/10/06 08:04:14;;;;;;;11.40;5.97;;;15.10;99.90;;;;;;5051870;28;20139;-66
2022/10/06 08:06:40;;;;;;;15.30;5.95;;;15.10;99.90;;;;;;5050946;28;20076;-66
2022/10/06 08:09:07;;;;;;;12.82;5.53;;;15.20;99.90;;;;;;5051505;28;20060;-64
2022/10/06 08:11:33;;;;;;;14.05;6.07;;;15.30;99.90;;;;;;5052064;28;20037;-65
2022/10/06 08:13:59;;;;;;;11.00;5.95;;;15.30;99.90;;;;;;5050851;28;20126;-64
2022/10/06 08:16:29;;;;;;;11.98;6.50;;;15.40;99.90;;;;;;5051445;28;20428;-65
2022/10/06 08:18:57;;;;;;;11.68;6.88;;;15.50;99.90;;;;;;5050851;28;20029;-63
2022/10/06 08:21:26;;;;;;;16.80;7.13;;;15.50;99.90;;;;;;5051217;28;20100;-64
2022/10/06 08:23:53;;;;;;;19.30;7.65;;;15.50;99.90;;;;;;5049414;28;20071;-65
2022/10/06 08:26:20;;;;;;;17.98;7.05;;;15.60;99.90;;;;;;5051447;28;20075;-65
2022/10/06 08:28:49;;;;;;;13.60;7.00;;;15.70;99.90;;;;;;5050686;28;20039;-67
2022/10/06 08:31:16;;;;;;;17.13;7.20;;;15.80;99.90;;;;;;5051391;28;20021;-65
2022/10/06 08:33:43;;;;;;;18.30;7.22;;;15.80;99.90;;;;;;5050570;28;20888;-64
2022/10/06 08:36:13;;;;;;;17.77;7.40;;;15.80;99.90;;;;;;5049958;28;20040;-64
2022/10/06 08:38:40;;;;;;;27.70;8.37;;;15.80;99.90;;;;;;5050406;28;20025;-70
2022/10/06 08:41:27;;;;;;;16.05;7.05;;;15.90;99.90;;;;;;5050909;28;20272;-64
2022/10/06 08:44:06;;;;;;;23.00;6.55;;;15.90;99.90;;;;;;5050150;28;20766;-64
2022/10/06 08:46:59;;;;;;;12.15;6.13;;;16.00;99.90;;;;;;5051063;28;20036;-64
2022/10/06 08:49:32;;;;;;;15.00;6.15;;;16.10;99.90;;;;;;5050452;28;20397;-63
2022/10/06 08:52:25;;;;;;;12.90;6.13;;;16.00;99.90;;;;;;5048362;28;20029;-64
2022/10/06 08:55:08;;;;;;;14.48;5.82;;;16.10;99.90;;;;;;5050318;28;20040;-65
2022/10/06 08:57:36;;;;;;;15.43;5.80;;;16.10;99.90;;;;;;5050691;28;20044;-64
2022/10/06 09:00:11;;;;;;;11.25;5.13;;;16.20;99.90;;;;;;5050155;28;20033;-64
2022/10/06 09:02:41;;;;;;;14.07;5.75;;;16.30;99.90;;;;;;5050794;28;20036;-66
2022/10/06 09:05:11;;;;;;;13.18;6.20;;;16.30;99.90;;;;;;5050472;28;20037;-65
2022/10/06 09:07:39;;;;;;;9.55;5.35;;;16.30;99.90;;;;;;5049180;28;20059;-66
2022/10/06 09:10:32;;;;;;;9.98;5.18;;;16.30;99.90;;;;;;5050297;28;20542;-65
2022/10/06 09:13:20;;;;;;;10.77;5.50;;;16.30;99.90;;;;;;5029649;28;20679;-63
2022/10/06 09:15:55;;;;;;;10.57;5.15;;;16.30;99.90;;;;;;5034570;28;20020;-64
2022/10/06 09:18:33;;;;;;;13.45;5.15;;;16.20;99.90;;;;;;5050524;28;20036;-65
2022/10/06 09:21:05;;;;;;;10.13;4.40;;;16.20;99.90;;;;;;5048937;28;20052;-65
2022/10/06 09:23:48;;;;;;;10.43;4.25;;;16.10;99.90;;;;;;5048960;28;20106;-66
2022/10/06 09:26:21;;;;;;;9.70;4.07;;;16.10;99.90;;;;;;5050246;28;20176;-64
2022/10/06 09:28:49;;;;;;;10.95;4.00;;;16.10;99.90;;;;;;5049520;28;20379;-64
2022/10/06 09:31:27;;;;;;;8.05;3.95;;;16.00;99.90;;;;;;5049694;28;20462;-64
2022/10/06 09:33:58;;;;;;;8.93;4.35;;;16.00;99.90;;;;;;5048457;28;20033;-64
2022/10/06 09:36:24;;;;;;;7.95;4.70;;;16.00;99.90;;;;;;5050166;28;20029;-65
2022/10/06 09:38:54;;;;;;;10.07;4.35;;;16.10;99.90;;;;;;5048872;28;20044;-66
2022/10/06 09:41:28;;;;;;;11.95;4.22;;;16.20;99.90;;;;;;5050194;28;20507;-65
2022/10/06 09:44:00;;;;;;;12.32;4.05;;;16.30;99.90;;;;;;5049308;28;20036;-63
2022/10/06 09:46:32;;;;;;;6.32;4.20;;;16.40;99.90;;;;;;5049970;28;20120;-68
2022/10/06 09:49:30;;;;;;;7.60;3.50;;;16.40;99.90;;;;;;5049135;28;20033;-65
2022/10/06 09:51:59;;;;;;;14.88;4.22;;;16.50;99.90;;;;;;5048814;28;20533;-67
2022/10/06 09:54:24;;;;;;;9.23;3.90;;;16.60;99.90;;;;;;5049803;28;20025;-65
2022/10/06 09:56:52;;;;;;;10.13;4.60;;;16.70;99.90;;;;;;5048395;28;20697;-64
2022/10/06 09:59:28;;;;;;;9.35;4.07;;;16.80;99.90;;;;;;5049756;28;20029;-66
2022/10/06 10:01:56;;;;;;;8.18;3.20;;;16.90;99.90;;;;;;5048834;28;20033;-64
2022/10/06 10:04:32;;;;;;;8.90;3.20;;;16.90;99.90;;;;;;5049656;28;20471;-64
2022/10/06 10:07:24;;;;;;;8.15;3.53;;;16.90;99.90;;;;;;5048887;28;20040;-66
2022/10/06 10:09:52;;;;;;;6.65;2.58;;;17.00;99.90;;;;;;5048820;28;20033;-65
2022/10/06 10:12:23;;;;;;;6.55;2.72;;;17.00;99.90;;;;;;5049611;28;20118;-67
2022/10/06 10:14:50;;;;;;;10.88;2.60;;;17.10;99.90;;;;;;5048875;28;20025;-64
2022/10/06 10:17:19;;;;;;;6.18;2.45;;;17.10;99.90;;;;;;5049528;28;20136;-66
2022/10/06 10:19:52;;;;;;;9.32;2.35;;;17.10;99.90;;;;;;5048717;28;20045;-69
2022/10/06 10:22:29;;;;;;;12.60;2.70;;;17.10;99.90;;;;;;5049449;28;20044;-67
2022/10/06 10:25:05;;;;;;;8.00;2.42;;;17.20;99.90;;;;;;5048355;28;20111;-63
2022/10/06 10:28:18;;;;;;;7.30;2.25;;;17.30;99.90;;;;;;5049401;28;20044;-66
2022/10/06 10:31:02;;;;;;;4.10;2.20;;;17.30;99.90;;;;;;5038890;28;20063;-69
2022/10/06 10:33:54;;;;;;;3.88;2.20;;;17.20;99.90;;;;;;5049211;28;20459;-66
2022/10/06 10:36:27;;;;;;;6.57;2.40;;;17.10;99.90;;;;;;5049485;28;20032;-64
2022/10/06 10:38:54;;;;;;;4.80;2.15;;;17.10;99.90;;;;;;5048509;28;20032;-66
2022/10/06 10:41:27;;;;;;;7.35;2.25;;;17.10;99.90;;;;;;5049041;28;20059;-63
2022/10/06 10:43:55;;;;;;;8.18;2.63;;;17.10;99.90;;;;;;5047579;28;20033;-66
2022/10/06 10:46:27;;;;;;;7.63;2.60;;;17.10;99.90;;;;;;5053457;28;20094;-65
2022/10/06 10:48:56;;;;;;;7.78;2.45;;;17.10;99.90;;;;;;5052386;28;20091;-63
2022/10/06 10:51:31;;;;;;;7.80;2.33;;;17.00;99.90;;;;;;5053371;28;20040;-66
2022/10/06 10:54:03;;;;;;;6.00;2.20;;;17.00;99.90;;;;;;5051760;28;20044;-67
2022/10/06 10:56:32;;;;;;;7.82;2.50;;;17.10;99.90;;;;;;5053273;28;20095;-65
2022/10/06 10:59:25;;;;;;;5.18;1.95;;;17.10;99.90;;;;;;5052144;28;20385;-66
2022/10/06 11:02:00;;;;;;;6.55;2.10;;;17.10;99.90;;;;;;5052064;28;20028;-66
2022/10/06 11:04:26;;;;;;;5.28;2.00;;;17.10;99.90;;;;;;5053190;28;20473;-64
2022/10/06 11:07:27;;;;;;;4.78;1.80;;;17.10;99.90;;;;;;5052126;28;20036;-65
2022/10/06 11:10:01;;;;;;;5.18;1.95;;;17.10;99.90;;;;;;5052000;28;20044;-66
2022/10/06 11:12:47;;;;;;;11.32;1.98;;;17.20;99.90;;;;;;5052937;28;20033;-64
2022/10/06 11:15:30;;;;;;;8.48;1.95;;;17.20;99.90;;;;;;5052585;28;20040;-66
2022/10/06 11:18:05;;;;;;;4.35;2.00;;;17.20;99.90;;;;;;5051765;28;20033;-65
2022/10/06 11:20:51;;;;;;;7.97;2.53;;;17.10;99.90;;;;;;5052276;28;20045;-64
2022/10/06 11:23:21;;;;;;;8.25;2.10;;;17.10;99.90;;;;;;5032732;28;20065;-68
2022/10/06 11:26:08;;;;;;;7.45;2.10;;;17.10;99.90;;;;;;5032537;28;20037;-68
2022/10/06 11:28:45;;;;;;;6.78;2.40;;;17.20;99.90;;;;;;5032779;28;20172;-66
2022/10/06 11:31:30;;;;;;;3.95;2.00;;;17.30;99.90;;;;;;5032012;28;20061;-66
2022/10/06 11:34:02;;;;;;;11.05;2.40;;;17.20;99.90;;;;;;5031804;28;20064;-66
2022/10/06 11:36:53;;;;;;;12.65;2.25;;;17.30;99.90;;;;;;5031224;28;20072;-64
2022/10/06 11:39:35;;;;;;;7.38;2.47;;;17.30;99.90;;;;;;5032491;28;20040;-66
2022/10/06 11:42:41;;;;;;;7.32;2.42;;;17.30;99.90;;;;;;5030259;28;20041;-66
2022/10/06 11:45:15;;;;;;;8.50;2.28;;;17.30;99.90;;;;;;5044101;28;20029;-65
2022/10/06 11:48:02;;;;;;;9.52;2.30;;;17.40;99.90;;;;;;5052280;28;20115;-65
2022/10/06 11:50:35;;;;;;;6.15;2.00;;;17.50;99.90;;;;;;5051952;28;20140;-67
2022/10/06 11:53:01;;;;;;;6.95;2.22;;;17.60;99.90;;;;;;5050715;28;20401;-67
2022/10/06 11:55:27;;;;;;;8.20;1.83;;;17.70;99.90;;;;;;5051508;28;20025;-68
2022/10/06 11:58:13;;;;;;;6.30;1.58;;;17.60;99.90;;;;;;5050876;28;20492;-66
2022/10/06 12:00:41;;;;;;;5.80;1.80;;;17.70;99.90;;;;;;5052061;28;20021;-66
2022/10/06 12:03:32;;;;;;;5.55;1.85;;;17.60;99.90;;;;;;5050357;28;20381;-67
2022/10/06 12:05:57;;;;;;;6.45;2.00;;;17.50;99.90;;;;;;5051275;28;20422;-66
2022/10/06 12:08:37;;;;;;;10.18;2.00;;;17.60;99.90;;;;;;5051899;28;20041;-66
2022/10/06 12:11:23;;;;;;;3.77;1.83;;;17.70;99.90;;;;;;5050892;28;20036;-64
2022/10/06 12:13:53;;;;;;;5.88;1.98;;;17.60;99.90;;;;;;5051330;28;20294;-69
2022/10/06 12:16:31;;;;;;;8.93;2.47;;;17.50;99.90;;;;;;5052077;28;20111;-64
2022/10/06 12:19:27;;;;;;;3.90;1.70;;;17.50;99.90;;;;;;5050792;28;20032;-67
2022/10/06 12:22:24;;;;;;;11.73;1.73;;;17.70;99.90;;;;;;5050780;28;20064;-72
2022/10/06 12:24:50;;;;;;;4.57;1.73;;;18.20;99.90;;;;;;5051249;28;20052;-71
2022/10/06 12:27:21;;;;;;;4.35;1.77;;;18.20;99.90;;;;;;5050866;28;20123;-67
2022/10/06 12:30:06;;;;;;;5.97;1.95;;;18.10;99.90;;;;;;5051421;28;20437;-64
2022/10/06 12:32:48;;;;;;;5.22;1.83;;;18.10;99.90;;;;;;5051189;28;20017;-63
2022/10/06 12:35:26;;;;;;;9.43;1.90;;;17.90;99.90;;;;;;5050722;28;20025;-67
2022/10/06 12:38:03;;;;;;;3.90;1.80;;;17.60;99.90;;;;;;5051054;28;20025;-68
2022/10/06 12:40:40;;;;;;;5.50;1.77;;;17.40;99.90;;;;;;5051418;28;20052;-64
2022/10/06 12:43:13;;;;;;;6.72;2.03;;;17.30;99.90;;;;;;5049833;28;20053;-63
2022/10/06 12:45:42;;;;;;;6.05;2.00;;;17.40;99.90;;;;;;5050878;28;20041;-64
2022/10/06 12:48:17;;;;;;;5.07;2.17;;;17.40;99.90;;;;;;5050167;28;20540;-67
2022/10/06 12:50:44;;;;;;;9.98;1.90;;;17.50;99.90;;;;;;5050390;28;20021;-64
2022/10/06 12:53:21;;;;;;;2.88;1.92;;;17.50;99.90;;;;;;5049932;28;20540;-65
2022/10/06 12:55:52;;;;;;;8.98;2.30;;;17.50;99.90;;;;;;5050894;28;20536;-68
2022/10/06 12:58:19;;;;;;;4.90;2.03;;;17.40;99.90;;;;;;5049974;28;20039;-66
2022/10/06 13:00:46;;;;;;;5.30;2.65;;;17.40;99.90;;;;;;5051116;28;20068;-64
2022/10/06 13:03:23;;;;;;;6.03;2.95;;;17.50;99.90;;;;;;5049949;28;20385;-67
2022/10/06 13:05:56;;;;;;;2.78;1.80;;;17.60;99.90;;;;;;5050677;28;20031;-64
2022/10/06 13:08:30;;;;;;;7.75;2.03;;;17.70;99.90;;;;;;5049352;28;20083;-66
2022/10/06 13:11:20;;;;;;;5.07;1.98;;;17.80;99.90;;;;;;5049924;28;20055;-72